Terminal Aerodrome Forecast
Issued by NWS

Home | Current Version | Previous Version | Text Only | Print | Product List | Glossary On
Versions: 1 2 3 4 5 6 7 8 9 10 11 12 13 14 15 16 17 18 19 20 21 22 23 24 25 26 27
000
FTUS45 KSLC 260007 AAA
TAF36U
TAF AMD
K36U 260007Z 2600/2624 27010KT 4SM -RASN SCT015 BKN020
     FM260600 VRB05KT 3SM -RASN BKN020 OVC035
     FM261200 03006KT P6SM VCSH BKN020 BKN035=

USA.gov is the U.S. government's official web portal to all federal, state and local government web resources and services.